sensor_id;sensor_type;location;lat;lon;timestamp;temperature;humidity
2543;DHT22;1116;51.502;7.414;2023-03-03T00:00:05;2.50;99.90
2543;DHT22;1116;51.502;7.414;2023-03-03T00:02:38;2.60;99.90
2543;DHT22;1116;51.502;7.414;2023-03-03T00:05:10;2.50;99.90
2543;DHT22;1116;51.502;7.414;2023-03-03T00:07:47;2.60;99.90
2543;DHT22;1116;51.502;7.414;2023-03-03T00:10:18;2.60;99.90
2543;DHT22;1116;51.502;7.414;2023-03-03T00:12:49;2.50;99.90
2543;DHT22;1116;51.502;7.414;2023-03-03T00:15:22;2.60;99.90
2543;DHT22;1116;51.502;7.414;2023-03-03T00:17:56;2.40;99.90
2543;DHT22;1116;51.502;7.414;2023-03-03T00:20:32;2.50;99.90
2543;DHT22;1116;51.502;7.414;2023-03-03T00:23:13;2.60;99.90
2543;DHT22;1116;51.502;7.414;2023-03-03T00:25:50;2.70;99.90
2543;DHT22;1116;51.502;7.414;2023-03-03T00:28:27;2.60;99.90
2543;DHT22;1116;51.502;7.414;2023-03-03T00:31:01;2.70;99.90
2543;DHT22;1116;51.502;7.414;2023-03-03T00:33:47;2.70;99.90
2543;DHT22;1116;51.502;7.414;2023-03-03T00:36:30;2.60;99.90
2543;DHT22;1116;51.502;7.414;2023-03-03T00:39:21;2.60;99.90
2543;DHT22;1116;51.502;7.414;2023-03-03T00:41:53;2.70;99.90
2543;DHT22;1116;51.502;7.414;2023-03-03T00:44:45;2.70;99.90
2543;DHT22;1116;51.502;7.414;2023-03-03T00:47:29;2.50;99.90
2543;DHT22;1116;51.502;7.414;2023-03-03T00:53:05;2.60;99.90
2543;DHT22;1116;51.502;7.414;2023-03-03T00:55:36;2.60;99.90
2543;DHT22;1116;51.502;7.414;2023-03-03T00:58:09;2.70;99.90
2543;DHT22;1116;51.502;7.414;2023-03-03T01:00:40;2.70;99.90
2543;DHT22;1116;51.502;7.414;2023-03-03T01:03:13;2.80;99.90
2543;DHT22;1116;51.502;7.414;2023-03-03T01:05:45;2.80;99.90
2543;DHT22;1116;51.502;7.414;2023-03-03T01:08:22;2.80;99.90
2543;DHT22;1116;51.502;7.414;2023-03-03T01:10:54;2.70;99.90
2543;DHT22;1116;51.502;7.414;2023-03-03T01:13:28;2.60;99.90
2543;DHT22;1116;51.502;7.414;2023-03-03T01:15:59;2.70;99.90
2543;DHT22;1116;51.502;7.414;2023-03-03T01:18:30;2.70;99.90
2543;DHT22;1116;51.502;7.414;2023-03-03T01:21:02;2.70;99.90
2543;DHT22;1116;51.502;7.414;2023-03-03T01:23:36;2.60;99.90
2543;DHT22;1116;51.502;7.414;2023-03-03T01:26:06;2.60;99.90
2543;DHT22;1116;51.502;7.414;2023-03-03T01:28:37;2.30;99.90
2543;DHT22;1116;51.502;7.414;2023-03-03T01:31:08;2.40;99.90
2543;DHT22;1116;51.502;7.414;2023-03-03T01:33:39;2.50;99.90
2543;DHT22;1116;51.502;7.414;2023-03-03T01:36:10;2.50;99.90
2543;DHT22;1116;51.502;7.414;2023-03-03T01:38:43;2.50;99.90
2543;DHT22;1116;51.502;7.414;2023-03-03T01:41:14;2.50;99.90
2543;DHT22;1116;51.502;7.414;2023-03-03T01:43:47;2.60;99.90
2543;DHT22;1116;51.502;7.414;2023-03-03T01:46:36;2.60;99.90
2543;DHT22;1116;51.502;7.414;2023-03-03T01:49:13;2.60;99.90
2543;DHT22;1116;51.502;7.414;2023-03-03T01:51:48;2.60;99.90
2543;DHT22;1116;51.502;7.414;2023-03-03T01:54:26;2.70;99.90
2543;DHT22;1116;51.502;7.414;2023-03-03T01:57:02;2.70;99.90
2543;DHT22;1116;51.502;7.414;2023-03-03T01:59:36;2.70;99.90
2543;DHT22;1116;51.502;7.414;2023-03-03T02:02:10;2.60;99.90
2543;DHT22;1116;51.502;7.414;2023-03-03T02:04:41;2.50;99.90
2543;DHT22;1116;51.502;7.414;2023-03-03T02:07:14;2.40;99.90
2543;DHT22;1116;51.502;7.414;2023-03-03T02:09:53;2.70;99.90
2543;DHT22;1116;51.502;7.414;2023-03-03T02:12:30;2.50;99.90
2543;DHT22;1116;51.502;7.414;2023-03-03T02:15:14;2.50;99.90
2543;DHT22;1116;51.502;7.414;2023-03-03T02:17:47;2.60;99.90
2543;DHT22;1116;51.502;7.414;2023-03-03T02:20:27;2.70;99.90
2543;DHT22;1116;51.502;7.414;2023-03-03T02:23:12;2.80;99.90
2543;DHT22;1116;51.502;7.414;2023-03-03T02:25:51;2.80;99.90
2543;DHT22;1116;51.502;7.414;2023-03-03T02:28:31;2.80;99.90
2543;DHT22;1116;51.502;7.414;2023-03-03T02:31:05;2.50;99.90
2543;DHT22;1116;51.502;7.414;2023-03-03T02:33:38;2.30;99.90
2543;DHT22;1116;51.502;7.414;2023-03-03T02:36:11;2.30;99.90
2543;DHT22;1116;51.502;7.414;2023-03-03T02:38:46;2.30;99.90
2543;DHT22;1116;51.502;7.414;2023-03-03T02:41:26;2.20;99.90
2543;DHT22;1116;51.502;7.414;2023-03-03T02:44:03;2.20;99.90
2543;DHT22;1116;51.502;7.414;2023-03-03T02:46:36;2.30;99.90
2543;DHT22;1116;51.502;7.414;2023-03-03T02:49:08;2.40;99.90
2543;DHT22;1116;51.502;7.414;2023-03-03T02:51:52;2.50;99.90
2543;DHT22;1116;51.502;7.414;2023-03-03T02:54:24;2.50;99.90
2543;DHT22;1116;51.502;7.414;2023-03-03T02:56:57;2.50;99.90
2543;DHT22;1116;51.502;7.414;2023-03-03T02:59:33;2.50;99.90
2543;DHT22;1116;51.502;7.414;2023-03-03T03:02:03;2.50;99.90
2543;DHT22;1116;51.502;7.414;2023-03-03T03:04:35;2.40;99.90
2543;DHT22;1116;51.502;7.414;2023-03-03T03:07:06;2.40;99.90
2543;DHT22;1116;51.502;7.414;2023-03-03T03:09:38;2.40;99.90
2543;DHT22;1116;51.502;7.414;2023-03-03T03:12:09;2.30;99.90
2543;DHT22;1116;51.502;7.414;2023-03-03T03:14:43;2.30;99.90
2543;DHT22;1116;51.502;7.414;2023-03-03T03:17:13;2.40;99.90
2543;DHT22;1116;51.502;7.414;2023-03-03T03:19:44;2.20;99.90
2543;DHT22;1116;51.502;7.414;2023-03-03T03:22:15;2.20;99.90
2543;DHT22;1116;51.502;7.414;2023-03-03T03:24:46;2.30;99.90
2543;DHT22;1116;51.502;7.414;2023-03-03T03:27:17;2.40;99.90
2543;DHT22;1116;51.502;7.414;2023-03-03T03:29:52;2.50;99.90
2543;DHT22;1116;51.502;7.414;2023-03-03T03:32:23;2.50;99.90
2543;DHT22;1116;51.502;7.414;2023-03-03T03:34:54;2.40;99.90
2543;DHT22;1116;51.502;7.414;2023-03-03T03:37:26;2.40;99.90
2543;DHT22;1116;51.502;7.414;2023-03-03T03:39:56;2.50;99.90
2543;DHT22;1116;51.502;7.414;2023-03-03T03:42:27;2.40;99.90
2543;DHT22;1116;51.502;7.414;2023-03-03T03:45:00;2.40;99.90
2543;DHT22;1116;51.502;7.414;2023-03-03T03:47:31;2.40;99.90
2543;DHT22;1116;51.502;7.414;2023-03-03T03:50:03;2.40;99.90
2543;DHT22;1116;51.502;7.414;2023-03-03T03:52:34;2.40;99.90
2543;DHT22;1116;51.502;7.414;2023-03-03T03:55:06;2.40;99.90
2543;DHT22;1116;51.502;7.414;2023-03-03T03:57:36;2.40;99.90
2543;DHT22;1116;51.502;7.414;2023-03-03T04:00:11;2.50;99.90
2543;DHT22;1116;51.502;7.414;2023-03-03T04:02:42;2.50;99.90
2543;DHT22;1116;51.502;7.414;2023-03-03T04:05:13;2.50;99.90
2543;DHT22;1116;51.502;7.414;2023-03-03T04:07:44;2.50;99.90
2543;DHT22;1116;51.502;7.414;2023-03-03T04:10:15;2.40;99.90
2543;DHT22;1116;51.502;7.414;2023-03-03T04:12:46;2.20;99.90
2543;DHT22;1116;51.502;7.414;2023-03-03T04:15:20;2.10;99.90
2543;DHT22;1116;51.502;7.414;2023-03-03T04:17:51;2.20;99.90
2543;DHT22;1116;51.502;7.414;2023-03-03T04:20:22;2.10;99.90
2543;DHT22;1116;51.502;7.414;2023-03-03T04:22:52;2.20;99.90
2543;DHT22;1116;51.502;7.414;2023-03-03T04:25:23;2.10;99.90
2543;DHT22;1116;51.502;7.414;2023-03-03T04:27:54;2.20;99.90
2543;DHT22;1116;51.502;7.414;2023-03-03T04:30:28;2.20;99.90
2543;DHT22;1116;51.502;7.414;2023-03-03T04:32:59;2.10;99.90
2543;DHT22;1116;51.502;7.414;2023-03-03T04:35:30;2.20;99.90
2543;DHT22;1116;51.502;7.414;2023-03-03T04:38:01;2.30;99.90
2543;DHT22;1116;51.502;7.414;2023-03-03T04:40:32;2.30;99.90
2543;DHT22;1116;51.502;7.414;2023-03-03T04:43:03;2.30;99.90
2543;DHT22;1116;51.502;7.414;2023-03-03T04:45:36;2.40;99.90
2543;DHT22;1116;51.502;7.414;2023-03-03T04:48:08;2.30;99.90
2543;DHT22;1116;51.502;7.414;2023-03-03T04:50:38;2.40;99.90
2543;DHT22;1116;51.502;7.414;2023-03-03T04:53:09;2.40;99.90
2543;DHT22;1116;51.502;7.414;2023-03-03T04:55:40;2.50;99.90
2543;DHT22;1116;51.502;7.414;2023-03-03T04:58:11;2.50;99.90
2543;DHT22;1116;51.502;7.414;2023-03-03T05:00:45;2.50;99.90
2543;DHT22;1116;51.502;7.414;2023-03-03T05:03:16;2.50;99.90
2543;DHT22;1116;51.502;7.414;2023-03-03T05:05:47;2.30;99.90
2543;DHT22;1116;51.502;7.414;2023-03-03T05:08:18;2.40;99.90
2543;DHT22;1116;51.502;7.414;2023-03-03T05:10:50;2.40;99.90
2543;DHT22;1116;51.502;7.414;2023-03-03T05:13:21;2.40;99.90
2543;DHT22;1116;51.502;7.414;2023-03-03T05:15:55;2.50;99.90
2543;DHT22;1116;51.502;7.414;2023-03-03T05:18:26;2.40;99.90
2543;DHT22;1116;51.502;7.414;2023-03-03T05:20:57;2.40;99.90
2543;DHT22;1116;51.502;7.414;2023-03-03T05:23:28;2.10;99.90
2543;DHT22;1116;51.502;7.414;2023-03-03T05:25:59;2.10;99.90
2543;DHT22;1116;51.502;7.414;2023-03-03T05:28:31;2.20;99.90
2543;DHT22;1116;51.502;7.414;2023-03-03T05:31:04;2.30;99.90
2543;DHT22;1116;51.502;7.414;2023-03-03T05:33:35;2.30;99.90
2543;DHT22;1116;51.502;7.414;2023-03-03T05:36:07;2.30;99.90
2543;DHT22;1116;51.502;7.414;2023-03-03T05:38:38;2.30;99.90
2543;DHT22;1116;51.502;7.414;2023-03-03T05:41:09;2.30;99.90
2543;DHT22;1116;51.502;7.414;2023-03-03T05:43:40;2.30;99.90
2543;DHT22;1116;51.502;7.414;2023-03-03T05:46:14;2.20;99.90
2543;DHT22;1116;51.502;7.414;2023-03-03T05:51:36;2.20;99.90
2543;DHT22;1116;51.502;7.414;2023-03-03T05:54:07;2.10;99.90
2543;DHT22;1116;51.502;7.414;2023-03-03T05:56:38;2.10;99.90
2543;DHT22;1116;51.502;7.414;2023-03-03T05:59:09;2.10;99.90
2543;DHT22;1116;51.502;7.414;2023-03-03T06:01:42;2.10;99.90
2543;DHT22;1116;51.502;7.414;2023-03-03T06:04:13;2.10;99.90
2543;DHT22;1116;51.502;7.414;2023-03-03T06:06:44;2.20;99.90
2543;DHT22;1116;51.502;7.414;2023-03-03T06:09:15;2.20;99.90
2543;DHT22;1116;51.502;7.414;2023-03-03T06:11:46;2.20;99.90
2543;DHT22;1116;51.502;7.414;2023-03-03T06:14:19;2.60;99.90
2543;DHT22;1116;51.502;7.414;2023-03-03T06:16:56;2.10;99.90
2543;DHT22;1116;51.502;7.414;2023-03-03T06:19:27;2.20;99.90
2543;DHT22;1116;51.502;7.414;2023-03-03T06:21:58;2.20;99.90
2543;DHT22;1116;51.502;7.414;2023-03-03T06:24:29;2.20;99.90
2543;DHT22;1116;51.502;7.414;2023-03-03T06:27:00;2.20;99.90
2543;DHT22;1116;51.502;7.414;2023-03-03T06:29:31;2.20;99.90
2543;DHT22;1116;51.502;7.414;2023-03-03T06:32:04;2.20;99.90
2543;DHT22;1116;51.502;7.414;2023-03-03T06:34:35;2.20;99.90
2543;DHT22;1116;51.502;7.414;2023-03-03T06:37:06;2.10;99.90
2543;DHT22;1116;51.502;7.414;2023-03-03T06:39:37;2.10;99.90
2543;DHT22;1116;51.502;7.414;2023-03-03T06:42:08;2.10;99.90
2543;DHT22;1116;51.502;7.414;2023-03-03T06:44:39;2.20;99.90
2543;DHT22;1116;51.502;7.414;2023-03-03T06:47:13;2.20;99.90
2543;DHT22;1116;51.502;7.414;2023-03-03T06:49:44;2.30;99.90
2543;DHT22;1116;51.502;7.414;2023-03-03T06:52:21;2.30;99.90
2543;DHT22;1116;51.502;7.414;2023-03-03T06:54:53;2.40;99.90
2543;DHT22;1116;51.502;7.414;2023-03-03T06:57:26;2.40;99.90
2543;DHT22;1116;51.502;7.414;2023-03-03T07:00:05;2.30;99.90
2543;DHT22;1116;51.502;7.414;2023-03-03T07:02:43;2.20;99.90
2543;DHT22;1116;51.502;7.414;2023-03-03T07:05:16;2.30;99.90
2543;DHT22;1116;51.502;7.414;2023-03-03T07:07:47;2.30;99.90
2543;DHT22;1116;51.502;7.414;2023-03-03T07:10:24;2.20;99.90
2543;DHT22;1116;51.502;7.414;2023-03-03T07:13:01;2.20;99.90
2543;DHT22;1116;51.502;7.414;2023-03-03T07:15:39;2.20;99.90
2543;DHT22;1116;51.502;7.414;2023-03-03T07:18:28;2.10;99.90
2543;DHT22;1116;51.502;7.414;2023-03-03T07:21:11;2.10;99.90
2543;DHT22;1116;51.502;7.414;2023-03-03T07:23:45;2.00;99.90
2543;DHT22;1116;51.502;7.414;2023-03-03T07:26:18;2.10;99.90
2543;DHT22;1116;51.502;7.414;2023-03-03T07:28:53;2.00;99.90
2543;DHT22;1116;51.502;7.414;2023-03-03T07:31:28;2.00;99.90
2543;DHT22;1116;51.502;7.414;2023-03-03T07:34:13;2.20;99.90
2543;DHT22;1116;51.502;7.414;2023-03-03T07:36:48;2.30;99.90
2543;DHT22;1116;51.502;7.414;2023-03-03T07:39:30;2.30;99.90
2543;DHT22;1116;51.502;7.414;2023-03-03T07:42:20;2.30;99.90
2543;DHT22;1116;51.502;7.414;2023-03-03T07:44:56;2.30;99.90
2543;DHT22;1116;51.502;7.414;2023-03-03T07:47:29;2.20;99.90
2543;DHT22;1116;51.502;7.414;2023-03-03T07:50:16;2.30;99.90
2543;DHT22;1116;51.502;7.414;2023-03-03T07:52:52;2.40;99.90
2543;DHT22;1116;51.502;7.414;2023-03-03T07:55:32;2.50;99.90
2543;DHT22;1116;51.502;7.414;2023-03-03T07:58:20;2.50;99.90
2543;DHT22;1116;51.502;7.414;2023-03-03T08:03:57;2.30;99.40
2543;DHT22;1116;51.502;7.414;2023-03-03T08:06:41;2.40;99.50
2543;DHT22;1116;51.502;7.414;2023-03-03T08:09:30;2.40;97.90
2543;DHT22;1116;51.502;7.414;2023-03-03T08:15:20;2.30;94.10
2543;DHT22;1116;51.502;7.414;2023-03-03T08:17:54;2.30;96.40
2543;DHT22;1116;51.502;7.414;2023-03-03T08:20:45;2.60;96.50
2543;DHT22;1116;51.502;7.414;2023-03-03T08:23:20;2.10;96.30
2543;DHT22;1116;51.502;7.414;2023-03-03T08:25:51;2.50;94.20
2543;DHT22;1116;51.502;7.414;2023-03-03T08:28:25;2.50;91.90
2543;DHT22;1116;51.502;7.414;2023-03-03T08:30:56;2.50;91.90
2543;DHT22;1116;51.502;7.414;2023-03-03T08:33:47;2.50;90.30
2543;DHT22;1116;51.502;7.414;2023-03-03T08:36:18;2.50;90.50
2543;DHT22;1116;51.502;7.414;2023-03-03T08:38:52;2.70;90.40
2543;DHT22;1116;51.502;7.414;2023-03-03T08:41:23;2.40;91.20
2543;DHT22;1116;51.502;7.414;2023-03-03T08:43:54;2.50;89.90
2543;DHT22;1116;51.502;7.414;2023-03-03T08:46:24;2.60;88.20
2543;DHT22;1116;51.502;7.414;2023-03-03T08:48:55;2.70;87.60
2543;DHT22;1116;51.502;7.414;2023-03-03T08:51:26;2.70;77.50
2543;DHT22;1116;51.502;7.414;2023-03-03T08:53:59;2.70;76.70
2543;DHT22;1116;51.502;7.414;2023-03-03T08:56:30;2.70;72.20
2543;DHT22;1116;51.502;7.414;2023-03-03T08:59:01;2.50;73.20
2543;DHT22;1116;51.502;7.414;2023-03-03T09:01:32;2.60;75.30
2543;DHT22;1116;51.502;7.414;2023-03-03T09:04:04;2.60;72.80
2543;DHT22;1116;51.502;7.414;2023-03-03T09:06:35;2.50;73.80
2543;DHT22;1116;51.502;7.414;2023-03-03T09:09:08;2.50;75.30
2543;DHT22;1116;51.502;7.414;2023-03-03T09:11:39;2.50;76.50
2543;DHT22;1116;51.502;7.414;2023-03-03T09:14:12;2.60;73.80
2543;DHT22;1116;51.502;7.414;2023-03-03T09:16:48;2.80;70.20
2543;DHT22;1116;51.502;7.414;2023-03-03T09:19:23;2.80;66.00
2543;DHT22;1116;51.502;7.414;2023-03-03T09:21:55;2.70;63.60
2543;DHT22;1116;51.502;7.414;2023-03-03T09:24:30;3.00;58.10
2543;DHT22;1116;51.502;7.414;2023-03-03T09:27:14;3.00;57.40
2543;DHT22;1116;51.502;7.414;2023-03-03T09:29:48;2.90;57.10
2543;DHT22;1116;51.502;7.414;2023-03-03T09:32:30;3.00;55.20
2543;DHT22;1116;51.502;7.414;2023-03-03T09:35:33;3.00;56.40
2543;DHT22;1116;51.502;7.414;2023-03-03T09:38:15;3.00;54.10
2543;DHT22;1116;51.502;7.414;2023-03-03T09:43:51;3.00;53.70
2543;DHT22;1116;51.502;7.414;2023-03-03T09:46:32;2.90;55.20
2543;DHT22;1116;51.502;7.414;2023-03-03T09:49:17;3.00;54.60
2543;DHT22;1116;51.502;7.414;2023-03-03T09:52:06;2.90;55.90
2543;DHT22;1116;51.502;7.414;2023-03-03T09:54:58;3.00;53.70
2543;DHT22;1116;51.502;7.414;2023-03-03T09:58:03;3.00;54.90
2543;DHT22;1116;51.502;7.414;2023-03-03T10:00:46;3.00;55.80
2543;DHT22;1116;51.502;7.414;2023-03-03T10:06:30;3.10;55.60
2543;DHT22;1116;51.502;7.414;2023-03-03T10:09:22;3.10;51.10
2543;DHT22;1116;51.502;7.414;2023-03-03T10:12:07;3.10;50.50
2543;DHT22;1116;51.502;7.414;2023-03-03T10:15:00;3.20;53.80
2543;DHT22;1116;51.502;7.414;2023-03-03T10:17:48;3.30;51.00
2543;DHT22;1116;51.502;7.414;2023-03-03T10:20:37;3.40;47.80
2543;DHT22;1116;51.502;7.414;2023-03-03T10:23:20;3.10;47.50
2543;DHT22;1116;51.502;7.414;2023-03-03T10:26:00;3.60;53.00
2543;DHT22;1116;51.502;7.414;2023-03-03T10:28:56;3.40;49.10
2543;DHT22;1116;51.502;7.414;2023-03-03T10:31:42;3.40;47.80
2543;DHT22;1116;51.502;7.414;2023-03-03T10:37:30;3.50;44.60
2543;DHT22;1116;51.502;7.414;2023-03-03T10:40:10;3.40;43.40
2543;DHT22;1116;51.502;7.414;2023-03-03T10:42:58;3.40;44.30
2543;DHT22;1116;51.502;7.414;2023-03-03T10:46:18;3.60;43.50
2543;DHT22;1116;51.502;7.414;2023-03-03T10:49:07;3.60;37.90
2543;DHT22;1116;51.502;7.414;2023-03-03T10:51:48;3.60;38.80
2543;DHT22;1116;51.502;7.414;2023-03-03T10:54:29;3.50;40.70
2543;DHT22;1116;51.502;7.414;2023-03-03T10:57:03;3.50;38.70
2543;DHT22;1116;51.502;7.414;2023-03-03T11:00:04;3.50;38.60
2543;DHT22;1116;51.502;7.414;2023-03-03T11:02:48;3.40;38.50
2543;DHT22;1116;51.502;7.414;2023-03-03T11:05:35;3.50;38.90
2543;DHT22;1116;51.502;7.414;2023-03-03T11:08:12;3.60;37.90
2543;DHT22;1116;51.502;7.414;2023-03-03T11:10:50;3.80;38.00
2543;DHT22;1116;51.502;7.414;2023-03-03T11:13:29;3.70;34.60
2543;DHT22;1116;51.502;7.414;2023-03-03T11:16:18;3.50;33.30
2543;DHT22;1116;51.502;7.414;2023-03-03T11:19:13;3.60;34.80
2543;DHT22;1116;51.502;7.414;2023-03-03T11:21:55;3.70;35.30
2543;DHT22;1116;51.502;7.414;2023-03-03T11:24:44;3.80;33.80
2543;DHT22;1116;51.502;7.414;2023-03-03T11:27:45;3.90;33.10
2543;DHT22;1116;51.502;7.414;2023-03-03T11:30:28;3.90;33.30
2543;DHT22;1116;51.502;7.414;2023-03-03T11:33:05;3.90;30.10
2543;DHT22;1116;51.502;7.414;2023-03-03T11:35:45;4.00;32.50
2543;DHT22;1116;51.502;7.414;2023-03-03T11:38:37;4.20;32.40
2543;DHT22;1116;51.502;7.414;2023-03-03T11:41:15;4.10;29.70
2543;DHT22;1116;51.502;7.414;2023-03-03T11:43:50;4.00;29.30
2543;DHT22;1116;51.502;7.414;2023-03-03T11:46:25;4.00;29.60
2543;DHT22;1116;51.502;7.414;2023-03-03T11:49:03;4.00;29.60
2543;DHT22;1116;51.502;7.414;2023-03-03T11:51:46;4.10;28.80
2543;DHT22;1116;51.502;7.414;2023-03-03T11:54:22;4.10;29.00
2543;DHT22;1116;51.502;7.414;2023-03-03T11:57:04;4.20;28.90
2543;DHT22;1116;51.502;7.414;2023-03-03T11:59:53;4.40;27.00
2543;DHT22;1116;51.502;7.414;2023-03-03T12:02:48;4.40;26.70
2543;DHT22;1116;51.502;7.414;2023-03-03T12:05:36;4.30;25.20
2543;DHT22;1116;51.502;7.414;2023-03-03T12:08:20;4.10;28.40
2543;DHT22;1116;51.502;7.414;2023-03-03T12:10:57;4.20;26.80
2543;DHT22;1116;51.502;7.414;2023-03-03T12:13:39;3.90;27.60
2543;DHT22;1116;51.502;7.414;2023-03-03T12:16:21;4.50;27.50
2543;DHT22;1116;51.502;7.414;2023-03-03T12:19:12;4.70;25.00
2543;DHT22;1116;51.502;7.414;2023-03-03T12:22:17;5.10;24.80
2543;DHT22;1116;51.502;7.414;2023-03-03T12:25:26;4.70;25.10
2543;DHT22;1116;51.502;7.414;2023-03-03T12:28:05;4.80;24.70
2543;DHT22;1116;51.502;7.414;2023-03-03T12:30:58;4.80;20.80
2543;DHT22;1116;51.502;7.414;2023-03-03T12:33:38;4.60;22.70
2543;DHT22;1116;51.502;7.414;2023-03-03T12:39:06;5.00;21.80
2543;DHT22;1116;51.502;7.414;2023-03-03T12:42:09;5.00;21.70
2543;DHT22;1116;51.502;7.414;2023-03-03T12:44:45;4.90;19.10
2543;DHT22;1116;51.502;7.414;2023-03-03T12:47:23;4.80;18.20
2543;DHT22;1116;51.502;7.414;2023-03-03T12:50:02;4.80;20.50
2543;DHT22;1116;51.502;7.414;2023-03-03T12:52:42;4.80;20.80
2543;DHT22;1116;51.502;7.414;2023-03-03T12:55:23;4.80;19.50
2543;DHT22;1116;51.502;7.414;2023-03-03T12:58:04;5.00;20.70
2543;DHT22;1116;51.502;7.414;2023-03-03T13:00:46;5.00;18.80
2543;DHT22;1116;51.502;7.414;2023-03-03T13:03:34;5.60;17.50
2543;DHT22;1116;51.502;7.414;2023-03-03T13:06:26;5.00;20.10
2543;DHT22;1116;51.502;7.414;2023-03-03T13:09:06;4.90;17.70
2543;DHT22;1116;51.502;7.414;2023-03-03T13:12:06;4.90;19.30
2543;DHT22;1116;51.502;7.414;2023-03-03T13:14:47;5.10;17.90
2543;DHT22;1116;51.502;7.414;2023-03-03T13:17:24;5.00;18.80
2543;DHT22;1116;51.502;7.414;2023-03-03T13:19:59;5.20;16.50
2543;DHT22;1116;51.502;7.414;2023-03-03T13:22:35;5.30;15.90
2543;DHT22;1116;51.502;7.414;2023-03-03T13:25:23;5.30;17.30
2543;DHT22;1116;51.502;7.414;2023-03-03T13:28:01;5.20;15.70
2543;DHT22;1116;51.502;7.414;2023-03-03T13:30:38;5.20;17.70
2543;DHT22;1116;51.502;7.414;2023-03-03T13:33:16;5.30;15.80
2543;DHT22;1116;51.502;7.414;2023-03-03T13:35:53;5.00;15.00
2543;DHT22;1116;51.502;7.414;2023-03-03T13:38:27;4.90;15.90
2543;DHT22;1116;51.502;7.414;2023-03-03T13:41:04;5.00;16.10
2543;DHT22;1116;51.502;7.414;2023-03-03T13:43:43;5.20;16.80
2543;DHT22;1116;51.502;7.414;2023-03-03T13:46:30;5.70;15.30
2543;DHT22;1116;51.502;7.414;2023-03-03T13:49:28;5.20;14.70
2543;DHT22;1116;51.502;7.414;2023-03-03T13:52:06;5.20;15.30
2543;DHT22;1116;51.502;7.414;2023-03-03T13:54:51;5.30;18.40
2543;DHT22;1116;51.502;7.414;2023-03-03T13:57:40;5.50;16.30
2543;DHT22;1116;51.502;7.414;2023-03-03T14:00:24;5.60;16.70
2543;DHT22;1116;51.502;7.414;2023-03-03T14:03:18;5.50;14.30
2543;DHT22;1116;51.502;7.414;2023-03-03T14:05:56;5.40;15.50
2543;DHT22;1116;51.502;7.414;2023-03-03T14:08:43;5.40;15.40
2543;DHT22;1116;51.502;7.414;2023-03-03T14:11:22;5.30;14.70
2543;DHT22;1116;51.502;7.414;2023-03-03T14:14:00;5.40;14.90
2543;DHT22;1116;51.502;7.414;2023-03-03T14:16:42;5.30;14.30
2543;DHT22;1116;51.502;7.414;2023-03-03T14:19:23;5.40;16.40
2543;DHT22;1116;51.502;7.414;2023-03-03T14:22:03;5.60;16.80
2543;DHT22;1116;51.502;7.414;2023-03-03T14:24:54;5.80;17.00
2543;DHT22;1116;51.502;7.414;2023-03-03T14:27:28;6.00;14.80
2543;DHT22;1116;51.502;7.414;2023-03-03T14:30:29;6.00;14.80
2543;DHT22;1116;51.502;7.414;2023-03-03T14:33:19;5.90;14.70
2543;DHT22;1116;51.502;7.414;2023-03-03T14:36:04;5.90;14.90
2543;DHT22;1116;51.502;7.414;2023-03-03T14:38:38;6.00;15.40
2543;DHT22;1116;51.502;7.414;2023-03-03T14:41:15;5.70;12.60
2543;DHT22;1116;51.502;7.414;2023-03-03T14:43:56;6.00;12.00
2543;DHT22;1116;51.502;7.414;2023-03-03T14:46:35;5.90;12.60
2543;DHT22;1116;51.502;7.414;2023-03-03T14:49:14;5.90;15.30
2543;DHT22;1116;51.502;7.414;2023-03-03T14:51:49;6.00;14.00
2543;DHT22;1116;51.502;7.414;2023-03-03T14:54:23;5.90;12.70
2543;DHT22;1116;51.502;7.414;2023-03-03T14:56:58;5.70;14.10
2543;DHT22;1116;51.502;7.414;2023-03-03T14:59:30;5.80;14.30
2543;DHT22;1116;51.502;7.414;2023-03-03T15:02:29;5.90;14.00
2543;DHT22;1116;51.502;7.414;2023-03-03T15:05:21;6.00;14.10
2543;DHT22;1116;51.502;7.414;2023-03-03T15:07:57;5.90;12.60
2543;DHT22;1116;51.502;7.414;2023-03-03T15:10:33;5.80;11.10
2543;DHT22;1116;51.502;7.414;2023-03-03T15:13:29;5.70;13.30
2543;DHT22;1116;51.502;7.414;2023-03-03T15:16:04;5.70;12.70
2543;DHT22;1116;51.502;7.414;2023-03-03T15:21:48;5.70;12.50
2543;DHT22;1116;51.502;7.414;2023-03-03T15:24:31;5.80;14.30
2543;DHT22;1116;51.502;7.414;2023-03-03T15:27:08;5.90;13.90
2543;DHT22;1116;51.502;7.414;2023-03-03T15:29:50;6.00;14.40
2543;DHT22;1116;51.502;7.414;2023-03-03T15:32:27;6.00;13.90
2543;DHT22;1116;51.502;7.414;2023-03-03T15:35:05;6.10;12.70
2543;DHT22;1116;51.502;7.414;2023-03-03T15:37:46;6.10;12.70
2543;DHT22;1116;51.502;7.414;2023-03-03T15:40:25;6.00;12.70
2543;DHT22;1116;51.502;7.414;2023-03-03T15:43:03;6.10;12.80
2543;DHT22;1116;51.502;7.414;2023-03-03T15:45:43;6.40;13.00
2543;DHT22;1116;51.502;7.414;2023-03-03T15:48:31;6.00;12.70
2543;DHT22;1116;51.502;7.414;2023-03-03T15:51:12;6.00;13.40
2543;DHT22;1116;51.502;7.414;2023-03-03T15:54:14;6.30;12.80
2543;DHT22;1116;51.502;7.414;2023-03-03T15:56:52;6.10;12.70
2543;DHT22;1116;51.502;7.414;2023-03-03T15:59:52;6.00;11.70
2543;DHT22;1116;51.502;7.414;2023-03-03T16:02:38;5.90;12.60
2543;DHT22;1116;51.502;7.414;2023-03-03T16:05:17;5.90;13.70
2543;DHT22;1116;51.502;7.414;2023-03-03T16:07:59;6.00;12.70
2543;DHT22;1116;51.502;7.414;2023-03-03T16:10:38;6.00;12.70
2543;DHT22;1116;51.502;7.414;2023-03-03T16:13:37;5.90;12.60
2543;DHT22;1116;51.502;7.414;2023-03-03T16:16:23;5.90;12.60
2543;DHT22;1116;51.502;7.414;2023-03-03T16:19:10;5.80;14.00
2543;DHT22;1116;51.502;7.414;2023-03-03T16:21:59;5.80;12.60
2543;DHT22;1116;51.502;7.414;2023-03-03T16:24:42;5.60;12.90
2543;DHT22;1116;51.502;7.414;2023-03-03T16:27:20;5.60;13.50
2543;DHT22;1116;51.502;7.414;2023-03-03T16:30:17;5.60;13.40
2543;DHT22;1116;51.502;7.414;2023-03-03T16:33:13;5.60;13.40
2543;DHT22;1116;51.502;7.414;2023-03-03T16:35:50;5.50;14.20
2543;DHT22;1116;51.502;7.414;2023-03-03T16:38:30;5.50;14.10
2543;DHT22;1116;51.502;7.414;2023-03-03T16:41:03;5.40;14.10
2543;DHT22;1116;51.502;7.414;2023-03-03T16:43:43;5.40;14.40
2543;DHT22;1116;51.502;7.414;2023-03-03T16:46:25;5.20;14.30
2543;DHT22;1116;51.502;7.414;2023-03-03T16:49:02;5.50;14.30
2543;DHT22;1116;51.502;7.414;2023-03-03T16:51:43;5.40;14.40
2543;DHT22;1116;51.502;7.414;2023-03-03T16:54:19;5.20;14.70
2543;DHT22;1116;51.502;7.414;2023-03-03T16:57:01;5.10;15.70
2543;DHT22;1116;51.502;7.414;2023-03-03T16:59:55;5.00;15.40
2543;DHT22;1116;51.502;7.414;2023-03-03T17:02:56;4.90;15.30
2543;DHT22;1116;51.502;7.414;2023-03-03T17:05:35;4.80;15.90
2543;DHT22;1116;51.502;7.414;2023-03-03T17:08:26;4.70;16.50
2543;DHT22;1116;51.502;7.414;2023-03-03T17:11:10;4.60;16.80
2543;DHT22;1116;51.502;7.414;2023-03-03T17:13:54;4.50;17.50
2543;DHT22;1116;51.502;7.414;2023-03-03T17:16:34;4.50;17.50
2543;DHT22;1116;51.502;7.414;2023-03-03T17:19:30;4.30;17.60
2543;DHT22;1116;51.502;7.414;2023-03-03T17:22:13;4.20;17.80
2543;DHT22;1116;51.502;7.414;2023-03-03T17:24:55;4.20;17.80
2543;DHT22;1116;51.502;7.414;2023-03-03T17:27:39;4.10;17.90
2543;DHT22;1116;51.502;7.414;2023-03-03T17:30:17;4.40;18.50
2543;DHT22;1116;51.502;7.414;2023-03-03T17:36:00;3.80;18.70
2543;DHT22;1116;51.502;7.414;2023-03-03T17:38:40;3.70;18.70
2543;DHT22;1116;51.502;7.414;2023-03-03T17:41:20;3.70;19.20
2543;DHT22;1116;51.502;7.414;2023-03-03T17:44:00;3.60;19.50
2543;DHT22;1116;51.502;7.414;2023-03-03T17:46:34;3.60;19.70
2543;DHT22;1116;51.502;7.414;2023-03-03T17:49:22;3.50;19.50
2543;DHT22;1116;51.502;7.414;2023-03-03T17:52:18;3.40;19.60
2543;DHT22;1116;51.502;7.414;2023-03-03T17:55:16;3.30;19.60
2543;DHT22;1116;51.502;7.414;2023-03-03T17:58:07;3.30;19.60
2543;DHT22;1116;51.502;7.414;2023-03-03T18:00:49;3.20;20.10